Isle of Skye, United Kingdom
Current Conditions -  °F | °C
As of 4:20 PM on Friday 19 Dec 2014 (Local Time) from EGPL Reporting Station
Rain Showers Rain Showers  
Wind Chill: 27°   Ceiling: Unl
Heat Index: 39°   Visibility: 6mi
Dew Point: 37°   Wind: 31mph
Humidity: 93%   Direction: 290°WNW
Pressure: 29.62"   Gusts: 43mph
Location:  57.11°N, 5.86°W
Report Text: EGPL 191620Z 29027G37KT 9999 -SHRAGR SCT012 04/03 Q1003
Loading
Personal Weather Stations






























Interactive Weather Map New forecast layout! Learn more

10-Day Weather Forecast

Advertisements
Track Severe Weather on mobile